createdAt,value
2022-09-09T00:02:22.328Z,100610.34
2022-09-09T00:04:57.467Z,100600.16
2022-09-09T00:07:27.516Z,100597.13
2022-09-09T00:10:01.674Z,100600.03
2022-09-09T00:12:36.684Z,100594.22
2022-09-09T00:15:07.755Z,100592.00
2022-09-09T00:17:40.901Z,100594.38
2022-09-09T00:20:13.934Z,100594.56
2022-09-09T00:22:38.566Z,100603.69
2022-09-09T00:25:12.652Z,100596.22
2022-09-09T00:27:42.728Z,100600.09
2022-09-09T00:30:20.817Z,100604.66
2022-09-09T00:32:45.684Z,100605.00
2022-09-09T00:35:20.290Z,100601.59
2022-09-09T00:37:44.555Z,100592.44
2022-09-09T00:40:24.623Z,100589.38
2022-09-09T00:42:48.261Z,100596.34
2022-09-09T00:45:40.280Z,100591.94
2022-09-09T00:48:10.639Z,100591.41
2022-09-09T00:50:48.268Z,100590.47
2022-09-09T00:53:30.989Z,100583.72
2022-09-09T00:56:06.255Z,100589.28
2022-09-09T00:58:29.909Z,100588.59
2022-09-09T01:01:01.147Z,100594.81
2022-09-09T01:03:35.757Z,100597.47
2022-09-09T01:06:19.031Z,100598.69
2022-09-09T01:09:05.905Z,100590.56
2022-09-09T01:11:39.227Z,100597.31
2022-09-09T01:14:14.344Z,100597.47
2022-09-09T01:16:40.481Z,100606.94
2022-09-09T01:19:05.384Z,100598.44
2022-09-09T01:21:42.286Z,100601.81
2022-09-09T01:24:29.895Z,100600.81
2022-09-09T01:27:08.042Z,100606.19
2022-09-09T01:29:32.084Z,100607.34
2022-09-09T01:31:58.269Z,100601.94
2022-09-09T01:34:23.707Z,100596.00
2022-09-09T01:36:54.027Z,100602.59
2022-09-09T01:39:17.751Z,100599.81
2022-09-09T01:41:42.712Z,100599.81
2022-09-09T01:44:12.233Z,100601.84
2022-09-09T01:46:38.030Z,100605.41
2022-09-09T01:49:08.054Z,100602.09
2022-09-09T01:51:32.091Z,100601.81
2022-09-09T01:53:59.262Z,100603.81
2022-09-09T01:56:38.412Z,100611.06
2022-09-09T01:59:25.367Z,100607.50
2022-09-09T02:02:11.084Z,100611.53
2022-09-09T02:04:44.459Z,100604.75
2022-09-09T02:07:30.521Z,100605.44
2022-09-09T02:10:03.713Z,100607.91
2022-09-09T02:12:29.980Z,100606.38
2022-09-09T02:15:03.471Z,100612.09
2022-09-09T02:17:38.605Z,100602.22
2022-09-09T02:20:11.123Z,100610.88
2022-09-09T02:22:51.762Z,100606.78
2022-09-09T02:25:20.787Z,100605.06
2022-09-09T02:27:47.902Z,100626.16
2022-09-09T02:30:14.824Z,100616.69
2022-09-09T02:32:46.175Z,100617.97
2022-09-09T02:35:16.512Z,100616.97
2022-09-09T02:37:43.581Z,100616.97
2022-09-09T02:40:11.407Z,100610.34
2022-09-09T02:42:42.221Z,100604.38
2022-09-09T02:45:07.296Z,100610.19
2022-09-09T02:47:38.308Z,100614.59
2022-09-09T02:50:15.744Z,100603.25
2022-09-09T02:52:55.254Z,100612.81
2022-09-09T02:55:27.314Z,100616.34
2022-09-09T02:57:54.946Z,100618.66
2022-09-09T03:00:25.350Z,100614.41
2022-09-09T03:02:50.739Z,100610.00
2022-09-09T03:05:14.455Z,100617.94
2022-09-09T03:07:38.232Z,100614.69
2022-09-09T03:10:01.809Z,100622.09
2022-09-09T03:12:25.375Z,100620.09
2022-09-09T03:14:49.067Z,100630.91
2022-09-09T03:17:12.939Z,100626.91
2022-09-09T03:19:45.081Z,100628.91
2022-09-09T03:22:12.264Z,100624.13
2022-09-09T03:24:38.721Z,100630.53
2022-09-09T03:27:02.608Z,100629.38
2022-09-09T03:29:26.970Z,100631.63
2022-09-09T03:31:54.020Z,100634.06
2022-09-09T03:34:18.122Z,100636.56
2022-09-09T03:36:43.791Z,100636.13
2022-09-09T03:39:07.471Z,100635.13
2022-09-09T03:41:33.067Z,100638.16
2022-09-09T03:43:58.862Z,100631.88
2022-09-09T03:46:27.874Z,100644.31
2022-09-09T03:48:53.187Z,100645.78
2022-09-09T03:51:17.915Z,100638.50
2022-09-09T03:53:42.851Z,100644.47
2022-09-09T03:56:08.038Z,100652.63
2022-09-09T03:58:31.671Z,100648.06
2022-09-09T04:01:05.864Z,100639.78
2022-09-09T04:03:30.763Z,100636.53
2022-09-09T04:05:54.592Z,100633.47
2022-09-09T04:08:19.575Z,100640.72
2022-09-09T04:10:46.991Z,100646.50
2022-09-09T04:13:10.596Z,100646.13
2022-09-09T04:15:36.591Z,100647.66
2022-09-09T04:18:00.583Z,100637.56
2022-09-09T04:20:24.495Z,100631.75
2022-09-09T04:22:48.382Z,100640.63
2022-09-09T04:25:12.015Z,100640.84
2022-09-09T04:27:37.022Z,100640.31
2022-09-09T04:30:00.821Z,100650.97
2022-09-09T04:32:28.569Z,100650.44
2022-09-09T04:34:52.142Z,100646.03
2022-09-09T04:37:16.330Z,100646.97
2022-09-09T04:39:40.282Z,100645.31
2022-09-09T04:42:04.275Z,100647.16
2022-09-09T04:44:29.578Z,100644.75
2022-09-09T04:46:53.622Z,100648.44
2022-09-09T04:49:17.975Z,100654.00
2022-09-09T04:51:41.527Z,100656.25
2022-09-09T04:54:06.120Z,100670.75
2022-09-09T04:56:30.045Z,100669.16
2022-09-09T04:58:56.445Z,100670.59
2022-09-09T05:01:26.747Z,100668.22
2022-09-09T05:03:55.407Z,100677.75
2022-09-09T05:06:23.679Z,100674.44
2022-09-09T05:08:51.924Z,100666.63
2022-09-09T05:11:21.539Z,100677.41
2022-09-09T05:13:45.475Z,100671.59
2022-09-09T05:16:12.316Z,100678.75
2022-09-09T05:18:38.031Z,100677.22
2022-09-09T05:21:02.235Z,100672.38
2022-09-09T05:23:26.711Z,100677.16
2022-09-09T05:25:58.702Z,100667.16
2022-09-09T05:28:23.098Z,100674.81
2022-09-09T05:30:46.707Z,100672.38
2022-09-09T05:33:10.423Z,100667.38
2022-09-09T05:35:36.099Z,100666.75
2022-09-09T05:38:02.918Z,100671.50
2022-09-09T05:40:26.565Z,100667.97
2022-09-09T05:42:50.387Z,100671.84
2022-09-09T05:45:14.187Z,100668.50
2022-09-09T05:47:38.255Z,100661.16
2022-09-09T05:50:04.478Z,100663.25
2022-09-09T05:52:29.791Z,100665.03
2022-09-09T05:54:56.054Z,100661.69
2022-09-09T05:57:20.489Z,100662.75
2022-09-09T05:59:45.009Z,100672.72
2022-09-09T06:02:11.104Z,100680.44
2022-09-09T06:04:34.962Z,100672.19
2022-09-09T06:07:00.012Z,100676.41
2022-09-09T06:09:25.040Z,100676.03
2022-09-09T06:11:48.717Z,100682.41
2022-09-09T06:14:12.884Z,100684.59
2022-09-09T06:16:38.909Z,100687.81
2022-09-09T06:19:07.940Z,100688.06
2022-09-09T06:21:37.116Z,100692.38
2022-09-09T06:24:03.090Z,100692.13
2022-09-09T06:26:29.908Z,100694.72
2022-09-09T06:28:55.815Z,100702.97
2022-09-09T06:31:24.125Z,100703.44
2022-09-09T06:33:52.899Z,100701.47
2022-09-09T06:36:20.251Z,100695.66
2022-09-09T06:38:44.198Z,100686.09
2022-09-09T06:41:11.839Z,100689.03
2022-09-09T06:43:37.835Z,100708.13
2022-09-09T06:46:04.791Z,100704.13
2022-09-09T06:48:30.676Z,100706.25
2022-09-09T06:51:02.871Z,100708.59
2022-09-09T06:53:28.218Z,100719.31
2022-09-09T06:55:52.101Z,100717.63
2022-09-09T06:58:15.779Z,100711.91
2022-09-09T07:00:40.792Z,100703.09
2022-09-09T07:03:04.538Z,100707.34
2022-09-09T07:05:28.108Z,100714.13
2022-09-09T07:07:52.976Z,100710.03
2022-09-09T07:10:17.761Z,100705.00
2022-09-09T07:12:42.329Z,100700.13
2022-09-09T07:15:09.362Z,100703.66
2022-09-09T07:17:34.391Z,100698.84
2022-09-09T07:19:58.327Z,100709.28
2022-09-09T07:22:23.617Z,100700.34
2022-09-09T07:24:47.130Z,100702.81
2022-09-09T07:27:12.172Z,100702.13
2022-09-09T07:29:35.885Z,100707.72
2022-09-09T07:32:00.414Z,100709.34
2022-09-09T07:34:30.998Z,100708.41
2022-09-09T07:36:55.272Z,100705.31
2022-09-09T07:39:19.407Z,100705.53
2022-09-09T07:41:49.496Z,100705.44
2022-09-09T07:44:19.390Z,100706.25
2022-09-09T07:46:47.155Z,100716.41
2022-09-09T07:49:15.142Z,100710.69
2022-09-09T07:51:43.705Z,100711.94
2022-09-09T07:54:10.641Z,100711.69
2022-09-09T07:56:36.518Z,100714.50
2022-09-09T07:59:02.189Z,100714.09
2022-09-09T08:01:28.749Z,100719.31
2022-09-09T08:03:59.870Z,100719.97
2022-09-09T08:06:25.979Z,100719.31
2022-09-09T08:08:52.905Z,100733.34
2022-09-09T08:11:17.666Z,100726.47
2022-09-09T08:13:41.827Z,100722.69
2022-09-09T08:16:12.614Z,100719.09
2022-09-09T08:18:38.766Z,100720.44
2022-09-09T08:21:09.463Z,100725.88
2022-09-09T08:23:33.838Z,100727.38
2022-09-09T08:26:07.070Z,100732.19
2022-09-09T08:28:32.075Z,100726.81
2022-09-09T08:30:55.679Z,100733.16
2022-09-09T08:33:20.155Z,100733.09
2022-09-09T08:35:53.855Z,100726.13
2022-09-09T08:38:17.753Z,100723.88
2022-09-09T08:40:50.407Z,100732.19
2022-09-09T08:43:18.546Z,100733.69
2022-09-09T08:45:57.546Z,100723.22
2022-09-09T08:48:42.750Z,100730.56
2022-09-09T08:51:08.310Z,100723.13
2022-09-09T08:53:42.970Z,100728.28
2022-09-09T08:56:15.114Z,100732.19
2022-09-09T08:59:04.139Z,100739.53
2022-09-09T09:01:47.476Z,100732.34
2022-09-09T09:04:36.250Z,100731.84
2022-09-09T09:07:14.995Z,100733.78
2022-09-09T09:09:50.575Z,100728.28
2022-09-09T09:12:20.095Z,100733.25
2022-09-09T09:14:48.486Z,100735.94
2022-09-09T09:17:16.133Z,100735.06
2022-09-09T09:19:42.975Z,100739.66
2022-09-09T09:22:19.067Z,100743.63
2022-09-09T09:24:53.527Z,100740.69
2022-09-09T09:27:33.177Z,100738.56
2022-09-09T09:30:23.861Z,100738.22
2022-09-09T09:32:54.749Z,100737.41
2022-09-09T09:35:19.736Z,100740.63
2022-09-09T09:40:31.876Z,100745.03
2022-09-09T09:42:59.547Z,100744.53
2022-09-09T09:45:34.154Z,100743.53
2022-09-09T09:48:07.483Z,100743.66
2022-09-09T09:50:35.629Z,100739.13
2022-09-09T09:53:02.006Z,100744.66
2022-09-09T09:55:31.119Z,100736.38
2022-09-09T09:57:55.353Z,100731.38
2022-09-09T10:00:23.632Z,100746.94
2022-09-09T10:02:57.385Z,100744.00
2022-09-09T10:05:29.076Z,100742.59
2022-09-09T10:08:05.906Z,100739.81
2022-09-09T10:10:47.835Z,100738.47
2022-09-09T10:13:19.504Z,100732.06
2022-09-09T10:15:53.858Z,100729.91
2022-09-09T10:18:40.043Z,100740.16
2022-09-09T10:21:16.699Z,100735.44
2022-09-09T10:23:57.055Z,100741.03
2022-09-09T10:26:37.410Z,100738.38
2022-09-09T10:29:29.524Z,100741.16
2022-09-09T10:32:08.396Z,100742.38
2022-09-09T10:34:57.083Z,100739.16
2022-09-09T10:37:37.874Z,100744.63
2022-09-09T10:40:11.116Z,100738.66
2022-09-09T10:42:35.690Z,100743.78
2022-09-09T10:45:13.349Z,100748.97
2022-09-09T10:48:10.530Z,100744.44
2022-09-09T10:51:03.973Z,100749.44
2022-09-09T10:53:45.618Z,100738.66
2022-09-09T10:56:15.046Z,100738.41
2022-09-09T10:58:45.011Z,100737.50
2022-09-09T11:01:18.349Z,100735.97
2022-09-09T11:03:43.246Z,100742.13
2022-09-09T11:06:15.116Z,100740.41
2022-09-09T11:08:41.567Z,100739.22
2022-09-09T11:11:10.553Z,100744.31
2022-09-09T11:13:44.276Z,100738.72
2022-09-09T11:16:21.924Z,100738.78
2022-09-09T11:18:47.528Z,100733.72
2022-09-09T11:21:24.516Z,100735.16
2022-09-09T11:23:53.588Z,100736.81
2022-09-09T11:26:23.897Z,100744.28
2022-09-09T11:29:05.045Z,100732.72
2022-09-09T11:31:47.656Z,100728.66
2022-09-09T11:34:30.081Z,100731.38
2022-09-09T11:37:21.742Z,100727.50
2022-09-09T11:40:11.357Z,100734.13
2022-09-09T11:42:35.167Z,100737.44
2022-09-09T11:44:59.188Z,100748.22
2022-09-09T11:47:30.532Z,100735.00
2022-09-09T11:49:55.177Z,100728.69
2022-09-09T11:52:27.723Z,100734.88
2022-09-09T11:54:52.310Z,100718.44
2022-09-09T11:57:29.593Z,100722.34
2022-09-09T11:59:54.300Z,100715.78
2022-09-09T12:02:25.356Z,100714.00
2022-09-09T12:04:57.602Z,100714.38
2022-09-09T12:07:37.015Z,100708.88
2022-09-09T12:10:04.824Z,100708.16
2022-09-09T12:12:35.246Z,100700.38
2022-09-09T12:15:26.979Z,100700.56
2022-09-09T12:17:52.785Z,100702.28
2022-09-09T12:20:19.430Z,100703.81
2022-09-09T12:22:59.360Z,100695.00
2022-09-09T12:25:33.867Z,100688.75
2022-09-09T12:28:08.848Z,100688.47
2022-09-09T12:30:42.544Z,100691.66
2022-09-09T12:33:14.961Z,100699.72
2022-09-09T12:35:39.628Z,100690.91
2022-09-09T12:38:08.025Z,100692.06
2022-09-09T12:40:36.275Z,100677.50
2022-09-09T12:43:02.207Z,100680.06
2022-09-09T12:45:28.565Z,100677.31
2022-09-09T12:47:57.247Z,100683.56
2022-09-09T12:50:26.623Z,100670.06
2022-09-09T12:52:52.248Z,100673.75
2022-09-09T12:55:26.112Z,100660.63
2022-09-09T12:57:51.850Z,100669.28
2022-09-09T13:00:20.235Z,100675.94
2022-09-09T13:02:53.220Z,100684.78
2022-09-09T13:05:21.656Z,100688.53
2022-09-09T13:07:45.599Z,100679.72
2022-09-09T13:10:18.111Z,100685.00
2022-09-09T13:12:50.759Z,100684.75
2022-09-09T13:15:23.704Z,100686.94
2022-09-09T13:17:54.790Z,100685.66
2022-09-09T13:20:20.471Z,100681.66
2022-09-09T13:22:44.059Z,100689.31
2022-09-09T13:25:20.525Z,100683.13
2022-09-09T13:27:58.446Z,100677.34
2022-09-09T13:30:26.302Z,100674.09
2022-09-09T13:32:49.888Z,100679.84
2022-09-09T13:35:26.579Z,100672.41
2022-09-09T13:37:50.186Z,100656.91
2022-09-09T13:40:22.654Z,100653.91
2022-09-09T13:42:47.746Z,100663.16
2022-09-09T13:45:22.405Z,100659.88
2022-09-09T13:47:46.294Z,100666.97
2022-09-09T13:50:22.281Z,100671.94
2022-09-09T13:52:46.419Z,100669.59
2022-09-09T13:55:11.694Z,100665.53
2022-09-09T13:57:35.252Z,100668.81
2022-09-09T14:00:05.029Z,100667.34
2022-09-09T14:02:32.292Z,100670.34
2022-09-09T14:04:56.599Z,100667.59
2022-09-09T14:07:21.489Z,100661.19
2022-09-09T14:09:45.312Z,100669.38
2022-09-09T14:12:11.454Z,100664.28
2022-09-09T14:14:35.060Z,100665.53
2022-09-09T14:16:58.819Z,100664.38
2022-09-09T14:19:23.731Z,100664.13
2022-09-09T14:21:47.339Z,100664.34
2022-09-09T14:24:10.850Z,100671.72
2022-09-09T14:26:34.481Z,100663.88
2022-09-09T14:28:58.588Z,100666.75
2022-09-09T14:31:22.736Z,100669.44
2022-09-09T14:33:46.671Z,100676.09
2022-09-09T14:36:11.874Z,100666.72
2022-09-09T14:38:40.671Z,100670.59
2022-09-09T14:41:04.859Z,100680.91
2022-09-09T14:43:28.906Z,100678.88
2022-09-09T14:45:52.547Z,100675.16
2022-09-09T14:48:16.686Z,100664.91
2022-09-09T14:50:41.571Z,100668.38
2022-09-09T14:53:06.469Z,100669.25
2022-09-09T14:55:30.523Z,100666.06
2022-09-09T14:57:54.172Z,100658.66
2022-09-09T15:00:18.125Z,100650.84
2022-09-09T15:02:42.070Z,100664.75
2022-09-09T15:05:06.375Z,100666.31
2022-09-09T15:07:30.323Z,100658.56
2022-09-09T15:09:55.403Z,100657.00
2022-09-09T15:12:20.173Z,100657.88
2022-09-09T15:14:43.808Z,100652.94
2022-09-09T15:17:07.359Z,100646.31
2022-09-09T15:19:30.934Z,100654.25
2022-09-09T15:21:55.441Z,100647.25
2022-09-09T15:24:19.047Z,100650.59
2022-09-09T15:26:44.077Z,100647.16
2022-09-09T15:29:08.479Z,100645.69
2022-09-09T15:31:33.718Z,100647.34
2022-09-09T15:34:01.786Z,100646.19
2022-09-09T15:36:28.035Z,100659.00
2022-09-09T15:38:52.772Z,100647.31
2022-09-09T15:41:17.859Z,100648.97
2022-09-09T15:43:47.710Z,100651.28
2022-09-09T15:46:28.927Z,100644.03
2022-09-09T15:48:54.369Z,100640.16
2022-09-09T15:51:41.033Z,100646.13
2022-09-09T15:54:02.255Z,100648.53
2022-09-09T15:56:26.683Z,100642.47
2022-09-09T15:58:53.014Z,100631.09
2022-09-09T16:01:17.826Z,100630.97
2022-09-09T16:03:45.660Z,100635.00
2022-09-09T16:06:09.727Z,100640.75
2022-09-09T16:08:35.222Z,100638.69
2022-09-09T16:10:58.814Z,100647.00
2022-09-09T16:13:22.419Z,100642.38
2022-09-09T16:15:47.462Z,100656.59
2022-09-09T16:18:11.042Z,100663.56
2022-09-09T16:20:34.619Z,100661.09
2022-09-09T16:22:58.374Z,100670.78
2022-09-09T16:25:22.022Z,100667.84
2022-09-09T16:27:45.586Z,100680.53
2022-09-09T16:30:10.843Z,100689.59
2022-09-09T16:32:36.381Z,100700.75
2022-09-09T16:35:00.011Z,100688.72
2022-09-09T16:37:23.646Z,100697.59
2022-09-09T16:39:47.331Z,100703.28
2022-09-09T16:42:11.674Z,100700.97
2022-09-09T16:44:35.205Z,100692.75
2022-09-09T16:47:01.011Z,100687.66
2022-09-09T16:49:26.070Z,100682.63
2022-09-09T16:51:54.159Z,100685.16
2022-09-09T16:54:19.393Z,100681.94
2022-09-09T16:56:45.282Z,100688.72
2022-09-09T16:59:11.394Z,100688.81
2022-09-09T17:01:38.447Z,100687.97
2022-09-09T17:04:06.058Z,100682.06
2022-09-09T17:06:32.483Z,100685.03
2022-09-09T17:08:57.667Z,100679.28
2022-09-09T17:11:21.764Z,100673.63
2022-09-09T17:13:45.987Z,100671.50
2022-09-09T17:16:10.579Z,100670.84
2022-09-09T17:18:34.438Z,100679.00
2022-09-09T17:20:58.194Z,100675.78
2022-09-09T17:23:23.270Z,100666.31
2022-09-09T17:25:47.089Z,100675.72
2022-09-09T17:28:10.777Z,100668.09
2022-09-09T17:30:37.671Z,100661.25
2022-09-09T17:33:01.185Z,100662.88
2022-09-09T17:35:24.828Z,100656.53
2022-09-09T17:37:48.375Z,100659.03
2022-09-09T17:40:14.740Z,100651.22
2022-09-09T17:42:38.359Z,100650.53
2022-09-09T17:45:02.204Z,100653.59
2022-09-09T17:47:26.681Z,100653.88
2022-09-09T17:49:50.288Z,100655.00
2022-09-09T17:52:13.887Z,100662.66
2022-09-09T17:54:37.789Z,100662.38
2022-09-09T17:57:02.782Z,100658.69
2022-09-09T17:59:26.584Z,100669.31
2022-09-09T18:01:51.955Z,100672.69
2022-09-09T18:04:18.361Z,100667.47
2022-09-09T18:06:44.943Z,100673.00
2022-09-09T18:09:13.246Z,100676.25
2022-09-09T18:11:42.688Z,100678.34
2022-09-09T18:14:07.683Z,100681.63
2022-09-09T18:16:36.443Z,100693.59
2022-09-09T18:19:00.855Z,100694.81
2022-09-09T18:21:25.927Z,100699.91
2022-09-09T18:23:52.239Z,100702.72
2022-09-09T18:26:19.698Z,100713.53
2022-09-09T18:28:44.959Z,100709.50
2022-09-09T18:31:12.390Z,100708.28
2022-09-09T18:33:38.370Z,100713.59
2022-09-09T18:36:08.058Z,100710.31
2022-09-09T18:38:35.685Z,100710.03
2022-09-09T18:40:59.313Z,100724.03
2022-09-09T18:43:23.284Z,100719.97
2022-09-09T18:45:46.811Z,100735.84
2022-09-09T18:48:12.763Z,100734.34
2022-09-09T18:50:36.326Z,100726.91
2022-09-09T18:52:59.953Z,100739.59
2022-09-09T18:55:23.551Z,100751.59
2022-09-09T18:57:48.339Z,100753.34
2022-09-09T19:00:13.365Z,100754.81
2022-09-09T19:02:36.979Z,100767.50
2022-09-09T19:05:02.983Z,100772.00
2022-09-09T19:07:26.593Z,100773.59
2022-09-09T19:09:50.603Z,100777.16
2022-09-09T19:12:14.240Z,100781.09
2022-09-09T19:14:38.036Z,100776.44
2022-09-09T19:17:01.660Z,100778.78
2022-09-09T19:19:28.542Z,100783.63
2022-09-09T19:21:55.263Z,100771.13
2022-09-09T19:24:21.534Z,100772.97
2022-09-09T19:26:50.416Z,100772.41
2022-09-09T19:29:17.352Z,100768.78
2022-09-09T19:31:48.859Z,100771.28
2022-09-09T19:34:24.928Z,100773.81
2022-09-09T19:36:48.890Z,100770.06
2022-09-09T19:39:15.239Z,100771.38
2022-09-09T19:41:39.103Z,100769.38
2022-09-09T19:44:06.051Z,100767.72
2022-09-09T19:46:31.365Z,100775.06
2022-09-09T19:48:55.020Z,100770.50
2022-09-09T19:51:22.055Z,100773.41
2022-09-09T19:53:48.478Z,100788.53
2022-09-09T19:56:14.510Z,100789.09
2022-09-09T19:58:40.271Z,100783.84
2022-09-09T20:01:10.602Z,100782.50
2022-09-09T20:03:34.395Z,100779.47
2022-09-09T20:05:58.150Z,100780.16
2022-09-09T20:08:21.855Z,100786.47
2022-09-09T20:10:53.375Z,100786.97
2022-09-09T20:13:18.381Z,100789.22
2022-09-09T20:15:42.032Z,100792.13
2022-09-09T20:18:06.247Z,100786.00
2022-09-09T20:20:30.272Z,100791.78
2022-09-09T20:22:55.158Z,100787.38
2022-09-09T20:25:18.717Z,100788.56
2022-09-09T20:27:42.805Z,100785.84
2022-09-09T20:30:09.982Z,100784.47
2022-09-09T20:32:33.828Z,100790.91
2022-09-09T20:34:58.092Z,100783.94
2022-09-09T20:37:21.751Z,100778.19
2022-09-09T20:39:46.436Z,100779.72
2022-09-09T20:42:10.124Z,100773.41
2022-09-09T20:44:33.800Z,100773.41
2022-09-09T20:47:02.770Z,100764.75
2022-09-09T20:49:26.343Z,100756.28
2022-09-09T20:51:50.840Z,100759.47
2022-09-09T20:54:17.575Z,100747.31
2022-09-09T20:56:44.520Z,100748.66
2022-09-09T20:59:10.295Z,100746.09
2022-09-09T21:01:34.259Z,100743.72
2022-09-09T21:04:00.173Z,100742.91
2022-09-09T21:06:24.116Z,100742.72
2022-09-09T21:08:48.082Z,100736.78
2022-09-09T21:11:11.863Z,100735.78
2022-09-09T21:13:37.451Z,100741.88
2022-09-09T21:16:01.091Z,100740.69
2022-09-09T21:18:24.869Z,100738.81
2022-09-09T21:20:50.656Z,100736.66
2022-09-09T21:23:16.143Z,100733.41
2022-09-09T21:25:39.755Z,100729.00
2022-09-09T21:28:04.010Z,100737.97
2022-09-09T21:30:37.746Z,100726.63
2022-09-09T21:33:04.126Z,100730.53
2022-09-09T21:35:27.798Z,100740.19
2022-09-09T21:37:52.875Z,100739.84
2022-09-09T21:40:16.517Z,100741.03
2022-09-09T21:42:40.218Z,100746.78
2022-09-09T21:45:03.768Z,100747.66
2022-09-09T21:47:27.322Z,100759.84
2022-09-09T21:49:51.050Z,100753.34
2022-09-09T21:52:15.722Z,100760.66
2022-09-09T21:54:44.376Z,100755.03
2022-09-09T21:57:07.939Z,100765.22
2022-09-09T21:59:32.408Z,100765.34
2022-09-09T22:01:56.111Z,100759.09
2022-09-09T22:04:19.717Z,100768.59
2022-09-09T22:06:43.285Z,100774.69
2022-09-09T22:09:06.799Z,100765.84
2022-09-09T22:11:31.814Z,100772.28
2022-09-09T22:13:56.014Z,100762.47
2022-09-09T22:16:22.170Z,100769.41
2022-09-09T22:18:45.905Z,100778.56
2022-09-09T22:21:11.784Z,100780.78
2022-09-09T22:23:36.501Z,100778.53
2022-09-09T22:26:00.415Z,100780.03
2022-09-09T22:28:25.300Z,100781.06
2022-09-09T22:30:48.927Z,100782.09
2022-09-09T22:33:12.498Z,100776.59
2022-09-09T22:35:42.406Z,100772.34
2022-09-09T22:38:05.938Z,100775.72
2022-09-09T22:40:29.978Z,100770.31
2022-09-09T22:42:54.159Z,100782.47
2022-09-09T22:45:19.926Z,100775.16
2022-09-09T22:47:43.458Z,100777.88
2022-09-09T22:50:08.657Z,100775.69
2022-09-09T22:52:32.319Z,100770.41
2022-09-09T22:54:56.320Z,100762.13
2022-09-09T22:57:19.935Z,100770.91
2022-09-09T22:59:43.479Z,100761.22
2022-09-09T23:02:09.928Z,100760.69
2022-09-09T23:04:33.438Z,100750.84
2022-09-09T23:06:57.095Z,100749.97
2022-09-09T23:09:20.789Z,100754.22
2022-09-09T23:11:46.887Z,100753.69
2022-09-09T23:14:12.896Z,100754.34
2022-09-09T23:16:39.872Z,100756.41
2022-09-09T23:19:04.905Z,100748.38
2022-09-09T23:21:30.701Z,100749.88
2022-09-09T23:23:55.571Z,100749.34
2022-09-09T23:26:20.287Z,100756.63
2022-09-09T23:28:43.843Z,100749.66
2022-09-09T23:31:10.864Z,100754.38
2022-09-09T23:33:36.723Z,100756.22
2022-09-09T23:36:03.931Z,100766.75
2022-09-09T23:38:28.405Z,100748.72
2022-09-09T23:40:51.919Z,100750.94
2022-09-09T23:43:15.440Z,100743.56
2022-09-09T23:45:38.962Z,100741.47
2022-09-09T23:48:03.362Z,100736.34
2022-09-09T23:50:27.082Z,100733.88
2022-09-09T23:52:52.345Z,100742.00
2022-09-09T23:55:16.099Z,100732.00
2022-09-09T23:57:39.631Z,100734.34
